Time;durP1;ratioP1;P1;durP2;ratioP2;P2;SDS_P1;SDS_P2;PMS_P1;PMS_P2;Temp;Humidity;BMP_temperature;BMP_pressure;BME280_temperature;BME280_humidity;BME280_pressure;Samples;Min_cycle;Max_cycle;Signal;HPM_P1;HPM_P2
2022/03/17 00:02:04;;;;;;;3.00;1.40;;;;;;;26.57;28.82;97071.50;5003066;28;20041;-25
2022/03/17 00:04:30;;;;;;;2.97;1.10;;;;;;;26.57;28.82;97071.50;5003923;28;20034;-28
2022/03/17 00:06:56;;;;;;;3.00;1.30;;;;;;;26.57;29.41;97078.53;5000653;28;20574;-29
2022/03/17 00:09:21;;;;;;;4.38;1.30;;;;;;;26.57;29.41;97078.53;5004060;28;20048;-30
2022/03/17 00:11:47;;;;;;;1.65;1.08;;;;;;;26.57;29.41;97078.53;4997921;28;20025;-28
2022/03/17 00:14:13;;;;;;;1.52;1.15;;;;;;;26.57;29.41;97078.53;5001502;28;20033;-29
2022/03/17 00:16:38;;;;;;;1.13;0.98;;;;;;;26.57;29.41;97078.53;5000287;28;20022;-31
2022/03/17 00:19:08;;;;;;;1.10;1.00;;;;;;;26.57;29.41;97078.53;5001295;28;20071;-31
2022/03/17 00:21:37;;;;;;;13.05;2.08;;;;;;;26.57;29.41;97078.53;5000135;28;20624;-34
2022/03/17 00:24:03;;;;;;;2.08;1.40;;;;;;;26.57;29.41;97078.53;5009818;28;20025;-32
2022/03/17 00:26:28;;;;;;;1.15;1.00;;;;;;;26.57;29.41;97078.53;5011589;28;20411;-29
2022/03/17 00:28:54;;;;;;;1.40;1.20;;;;;;;26.57;29.41;97078.53;5010616;28;20032;-30
2022/03/17 00:31:20;;;;;;;1.30;1.20;;;;;;;26.57;29.41;97078.53;5005699;28;20041;-30
2022/03/17 00:33:45;;;;;;;5.35;1.48;;;;;;;26.57;29.41;97078.53;5006695;28;20037;-31
2022/03/17 00:36:11;;;;;;;2.05;1.13;;;;;;;26.57;29.41;97078.53;5007209;28;20025;-33
2022/03/17 00:38:37;;;;;;;1.25;1.10;;;;;;;26.57;29.41;97078.53;5000400;28;20571;-29
2022/03/17 00:41:02;;;;;;;4.38;1.50;;;;;;;26.57;29.41;97078.53;5002664;28;20939;-31
2022/03/17 00:43:28;;;;;;;1.80;1.35;;;;;;;26.54;28.99;97076.91;5000947;28;20025;-27
2022/03/17 00:45:53;;;;;;;2.40;1.30;;;;;;;26.54;28.99;97076.91;4998093;28;20048;-27
2022/03/17 00:48:19;;;;;;;2.83;1.30;;;;;;;26.54;28.99;97076.91;5003025;28;20045;-28
2022/03/17 00:50:44;;;;;;;2.80;1.20;;;;;;;26.54;28.99;97076.91;5000343;28;20040;-31
2022/03/17 00:53:10;;;;;;;1.13;0.98;;;;;;;26.54;28.99;97076.91;5000898;28;20036;-29
2022/03/17 00:55:35;;;;;;;1.98;0.90;;;;;;;26.54;28.99;97076.91;5002402;28;20396;-30
2022/03/17 00:58:01;;;;;;;1.05;0.95;;;;;;;26.54;28.99;97076.91;5003038;28;20056;-33
2022/03/17 01:00:26;;;;;;;1.60;1.10;;;;;;;26.54;28.99;97076.91;4999386;28;20033;-30
2022/03/17 01:02:53;;;;;;;1.33;1.10;;;;;;;26.54;28.99;97076.91;5000619;28;20064;-31
2022/03/17 01:05:19;;;;;;;1.02;0.90;;;;;;;26.54;28.99;97076.91;5001103;28;20021;-32
2022/03/17 01:07:44;;;;;;;2.40;1.10;;;;;;;26.54;28.99;97076.91;5002657;28;20032;-29
2022/03/17 01:10:12;;;;;;;1.63;1.17;;;;;;;26.54;28.99;97076.91;5002242;28;20092;-31
2022/03/17 01:12:38;;;;;;;3.30;1.20;;;;;;;26.54;28.99;97076.91;4998642;28;20038;-27
2022/03/17 01:15:04;;;;;;;1.27;1.10;;;;;;;26.54;28.99;97076.91;5002957;28;20599;-32
2022/03/17 01:17:29;;;;;;;2.38;1.00;;;;;;;26.54;28.99;97076.91;5000614;28;20764;-29
2022/03/17 01:19:55;;;;;;;2.25;1.10;;;;;;;26.54;28.99;97076.91;5000638;28;20040;-30
2022/03/17 01:22:23;;;;;;;1.33;1.02;;;;;;;26.54;28.99;97076.91;4997569;28;20060;-27
2022/03/17 01:24:51;;;;;;;0.95;0.90;;;;;;;26.54;28.99;97076.91;5001028;28;20067;-32
2022/03/17 01:27:20;;;;;;;1.42;1.20;;;;;;;26.54;28.99;97076.91;5004287;28;20029;-29
2022/03/17 01:29:46;;;;;;;1.42;1.05;;;;;;;26.54;28.99;97076.91;5007450;28;20026;-33
2022/03/17 01:32:11;;;;;;;1.17;1.08;;;;;;;26.54;28.99;97076.91;5007416;28;20057;-26
2022/03/17 01:34:37;;;;;;;2.15;1.05;;;;;;;26.54;28.99;97076.91;5008036;28;20387;-29
2022/03/17 01:37:02;;;;;;;1.83;1.08;;;;;;;26.54;28.99;97076.91;5010747;28;20105;-29
2022/03/17 01:39:28;;;;;;;1.42;1.00;;;;;;;26.54;28.99;97076.91;5010294;28;20053;-29
2022/03/17 01:42:02;;;;;;;1.55;1.13;;;;;;;26.54;28.99;97076.91;5009114;28;20180;-30
2022/03/17 01:44:27;;;;;;;1.35;1.08;;;;;;;26.54;28.99;97076.91;4989268;28;20032;-26
2022/03/17 01:49:37;;;;;;;2.13;1.20;;;;;;;26.54;28.99;97076.91;5013998;28;20037;-30
2022/03/17 01:52:03;;;;;;;1.30;1.20;;;;;;;26.54;28.99;97076.91;5010892;28;20431;-29
2022/03/17 01:54:28;;;;;;;1.27;1.00;;;;;;;26.54;28.99;97076.91;5013210;28;20577;-28
2022/03/17 01:56:54;;;;;;;1.55;1.10;;;;;;;26.54;28.99;97076.91;5011469;28;20041;-30
2022/03/17 01:59:19;;;;;;;2.95;1.10;;;;;;;26.54;28.99;97076.91;4985556;28;20030;-30
2022/03/17 02:01:44;;;;;;;1.05;0.90;;;;;;;26.54;28.99;97076.91;4988990;28;20095;-32
2022/03/17 02:04:10;;;;;;;1.40;1.00;;;;;;;26.54;28.99;97076.91;5002336;28;20037;-29
2022/03/17 02:06:37;;;;;;;1.80;1.08;;;;;;;26.54;28.99;97076.91;5004092;28;20665;-26
2022/03/17 02:09:03;;;;;;;1.20;0.93;;;;;;;26.54;28.99;97076.91;5004067;28;22865;-32
2022/03/17 02:14:19;;;;;;;0.90;0.90;;;;;;;;;;5000646;28;20091;-30
2022/03/17 02:16:44;;;;;;;0.73;0.70;;;;;;;;;;5002718;28;20033;-31
2022/03/17 02:19:10;;;;;;;1.77;0.93;;;;;;;-148.56;28.99;97076.91;5007390;28;20025;-30
2022/03/17 02:21:36;;;;;;;1.80;1.00;;;;;;;;;;5004980;28;20087;-30
2022/03/17 02:26:53;;;;;;;1.42;1.10;;;;;;;-148.56;100.00;61375.16;4983260;28;20048;-28
2022/03/17 02:29:19;;;;;;;1.05;0.88;;;;;;;-148.56;28.99;71214.53;4969878;28;20514;-30
2022/03/17 02:31:44;;;;;;;1.40;1.02;;;;;;;-148.56;100.00;61375.16;5005090;28;20037;-30
2022/03/17 02:34:09;;;;;;;1.75;1.10;;;;;;;-148.56;26.88;61375.16;5001344;28;20029;-28
2022/03/17 02:36:35;;;;;;;1.10;0.73;;;;;;;-148.56;26.88;61375.16;5000590;28;20518;-30
2022/03/17 02:39:00;;;;;;;1.23;0.82;;;;;;;-148.56;26.88;61375.16;5004203;28;20073;-30
2022/03/17 02:41:26;;;;;;;1.42;1.00;;;;;;;-148.56;100.00;61375.16;5003578;28;20543;-30
2022/03/17 02:43:52;;;;;;;0.80;0.80;;;;;;;-148.56;28.99;97076.91;5001704;28;20026;-30
2022/03/17 02:46:17;;;;;;;1.00;0.80;;;;;;;-148.56;26.88;61375.16;4997637;28;20065;-31
2022/03/17 02:48:43;;;;;;;0.73;0.68;;;;;;;-148.56;28.99;71214.53;5001342;28;20030;-30
2022/03/17 02:51:09;;;;;;;1.63;1.08;;;;;;;-148.56;28.99;71214.53;5006381;28;20124;-31
2022/03/17 02:53:34;;;;;;;1.13;1.00;;;;;;;-148.56;26.88;61375.16;5002540;28;21298;-30
2022/03/17 02:56:00;;;;;;;1.17;0.98;;;;;;;-148.56;29.58;61375.16;5000332;28;20428;-28
2022/03/17 02:58:25;;;;;;;0.90;0.85;;;;;;;-148.56;nan;61375.16;5005780;28;20030;-30
2022/03/17 03:00:50;;;;;;;2.80;1.05;;;;;;;-148.56;26.88;113866.56;5003454;28;20030;-29
2022/03/17 03:03:17;;;;;;;2.17;1.08;;;;;;;-148.56;nan;61375.16;5001079;28;20040;-28
2022/03/17 03:05:43;;;;;;;1.20;0.93;;;;;;;-148.56;100.00;61375.16;5003507;28;20107;-28
2022/03/17 03:08:08;;;;;;;0.95;0.80;;;;;;;-148.56;26.88;61375.16;5007313;28;20491;-28
2022/03/17 03:10:34;;;;;;;2.10;1.00;;;;;;;-148.56;100.00;61375.16;5004424;28;20030;-29
2022/03/17 03:12:59;;;;;;;0.85;0.82;;;;;;;-148.56;100.00;61375.16;5001288;28;20118;-33
2022/03/17 03:15:25;;;;;;;1.55;0.82;;;;;;;-148.56;100.00;61375.16;5004410;28;20028;-30
2022/03/17 03:17:51;;;;;;;1.23;0.90;;;;;;;-148.56;25.95;61375.16;5003086;28;20489;-30
2022/03/17 03:20:16;;;;;;;1.38;0.80;;;;;;;-148.56;26.88;61375.16;5001957;28;20030;-31
2022/03/17 03:22:41;;;;;;;1.10;1.00;;;;;;;-148.56;100.00;61375.16;5001930;28;20075;-28
2022/03/17 03:25:07;;;;;;;1.00;0.80;;;;;;;-148.56;26.88;61375.16;4992330;28;20068;-31
2022/03/17 03:27:34;;;;;;;1.27;0.90;;;;;;;-148.56;nan;61375.16;5005042;28;20069;-31
2022/03/17 03:29:59;;;;;;;2.10;1.05;;;;;;;-148.56;60.61;61375.16;5004752;28;20018;-29
2022/03/17 03:32:25;;;;;;;1.65;1.00;;;;;;;-148.56;0.00;61375.16;5011938;28;20064;-30
2022/03/17 03:34:50;;;;;;;1.67;1.00;;;;;;;-148.56;100.00;61375.16;5004281;28;20067;-31
2022/03/17 03:37:25;;;;;;;1.38;1.05;;;;;;;-148.56;28.99;113866.56;5004705;28;20173;-27
2022/03/17 03:39:57;;;;;;;1.33;0.93;;;;;;;-148.56;100.00;61375.16;4999978;28;20030;-28
2022/03/17 03:42:23;;;;;;;1.95;1.20;;;;;;;-148.56;100.00;61375.16;5000504;28;20488;-29
2022/03/17 03:44:48;;;;;;;1.33;0.90;;;;;;;-148.56;100.00;61375.16;5001567;28;20030;-29
2022/03/17 03:47:14;;;;;;;1.25;1.10;;;;;;;-148.56;100.00;61375.16;5000596;28;20542;-30
2022/03/17 03:49:39;;;;;;;1.17;0.90;;;;;;;-148.56;100.00;61375.16;5000779;28;20454;-29
2022/03/17 03:52:09;;;;;;;1.65;0.95;;;;;;;-148.56;nan;61375.16;5003326;28;20731;-31
2022/03/17 03:54:34;;;;;;;1.48;1.00;;;;;;;-148.56;100.00;61375.16;5002719;28;20750;-31
2022/03/17 03:57:00;;;;;;;1.13;1.00;;;;;;;-148.56;100.00;61375.16;5003424;28;20037;-31
2022/03/17 03:59:26;;;;;;;1.42;0.90;;;;;;;-148.56;100.00;61375.16;5004415;28;20029;-29
2022/03/17 04:01:53;;;;;;;1.02;0.82;;;;;;;-148.56;26.88;61375.16;5002171;28;20036;-30
2022/03/17 04:04:20;;;;;;;1.05;0.95;;;;;;;-148.56;100.00;61375.16;4999280;28;20051;-30
2022/03/17 04:06:46;;;;;;;1.33;0.90;;;;;;;-148.56;100.00;61375.16;5004333;28;20038;-28
2022/03/17 04:09:15;;;;;;;0.70;0.70;;;;;;;-148.56;100.00;61375.16;5000283;28;20087;-31
2022/03/17 04:11:41;;;;;;;1.40;1.30;;;;;;;-148.56;100.00;61375.16;5002747;28;20036;-31
2022/03/17 04:14:07;;;;;;;1.10;0.88;;;;;;;-148.56;100.00;61375.16;5001347;28;20053;-30
2022/03/17 04:16:32;;;;;;;0.90;0.90;;;;;;;-148.56;100.00;61375.16;5000340;28;20056;-31
2022/03/17 04:18:58;;;;;;;1.77;0.98;;;;;;;-148.56;100.00;61375.16;5000841;28;20583;-32
2022/03/17 04:21:23;;;;;;;0.85;0.85;;;;;;;-148.56;100.00;61375.16;5002852;28;20076;-31
2022/03/17 04:23:49;;;;;;;1.10;0.80;;;;;;;-148.56;100.00;61375.16;4997991;28;20068;-31
2022/03/17 04:26:14;;;;;;;1.90;0.98;;;;;;;-148.56;28.99;71214.53;5002417;28;20037;-32
2022/03/17 04:28:39;;;;;;;0.70;0.70;;;;;;;-148.56;0.00;61375.16;5002152;28;20092;-31
2022/03/17 04:31:05;;;;;;;0.85;0.85;;;;;;;-148.56;100.00;61375.16;5000138;28;20530;-32
2022/03/17 04:33:30;;;;;;;6.38;0.90;;;;;;;-148.56;100.00;61375.16;5000674;28;20065;-29
2022/03/17 04:35:56;;;;;;;1.20;1.10;;;;;;;-148.56;26.88;113866.56;5002489;28;20104;-30
2022/03/17 04:38:22;;;;;;;1.08;0.98;;;;;;;-148.56;100.00;61375.16;5003351;28;20546;-32
2022/03/17 04:40:49;;;;;;;1.92;1.20;;;;;;;-148.56;100.00;61375.16;5001676;28;20629;-31
2022/03/17 04:43:17;;;;;;;1.20;1.10;;;;;;;-148.56;nan;61375.16;5000302;28;20033;-31
2022/03/17 04:45:44;;;;;;;2.75;1.13;;;;;;;-148.56;28.99;71214.53;4979913;28;20026;-29
2022/03/17 04:48:09;;;;;;;1.10;0.80;;;;;;;-148.56;0.00;61375.16;5002211;28;20037;-30
2022/03/17 04:50:35;;;;;;;1.65;1.10;;;;;;;-148.56;100.00;61375.16;5000143;28;20435;-33
2022/03/17 04:55:44;;;;;;;0.80;0.80;;;;;;;-148.56;100.00;61375.16;5000206;28;20083;-34
2022/03/17 04:58:09;;;;;;;1.35;0.98;;;;;;;-148.56;100.00;61375.16;5003165;28;20026;-33
2022/03/17 05:00:35;;;;;;;0.95;0.95;;;;;;;-148.56;100.00;61375.16;4999807;28;20037;-30
2022/03/17 05:03:00;;;;;;;1.00;0.90;;;;;;;-148.56;100.00;61375.16;5003550;28;20034;-34
2022/03/17 05:05:26;;;;;;;1.13;0.80;;;;;;;-148.56;100.00;61375.16;5003915;28;20025;-30
2022/03/17 05:07:56;;;;;;;0.90;0.90;;;;;;;-148.56;100.00;61375.16;5000084;28;20029;-28
2022/03/17 05:10:21;;;;;;;0.85;0.80;;;;;;;-148.56;100.00;61375.16;5001165;28;20037;-32
2022/03/17 05:12:47;;;;;;;1.48;0.93;;;;;;;-148.56;0.00;61375.16;4999372;28;20127;-33
2022/03/17 05:15:12;;;;;;;2.15;0.90;;;;;;;-148.56;0.00;61375.16;4987251;28;20014;-29
2022/03/17 05:17:39;;;;;;;1.25;0.88;;;;;;;-148.56;100.00;61375.16;5007835;28;20022;-31
2022/03/17 05:20:05;;;;;;;1.05;1.00;;;;;;;-148.56;8.88;61375.16;5009458;28;20036;-32
2022/03/17 05:22:30;;;;;;;2.47;1.15;;;;;;;-148.56;26.88;61375.16;5005488;28;20030;-32
2022/03/17 05:24:56;;;;;;;3.28;1.25;;;;;;;-148.56;100.00;61375.16;5007804;28;20649;-28
2022/03/17 05:27:21;;;;;;;1.75;1.35;;;;;;;-148.56;100.00;61375.16;5010061;28;20092;-30
2022/03/17 05:29:47;;;;;;;1.65;1.42;;;;;;;-148.56;100.00;61375.16;5010958;28;20026;-24
2022/03/17 05:32:12;;;;;;;1.65;1.10;;;;;;;-148.56;26.88;61375.16;5002811;28;20029;-27
2022/03/17 05:34:38;;;;;;;2.38;1.40;;;;;;;-148.56;100.00;61375.16;5006447;28;20460;-31
2022/03/17 05:37:03;;;;;;;1.42;1.27;;;;;;;-148.56;100.00;61375.16;5009432;28;20670;-29
2022/03/17 05:39:29;;;;;;;0.90;0.88;;;;;;;-148.56;100.00;61375.16;5010349;28;20148;-30
2022/03/17 05:41:54;;;;;;;1.58;1.30;;;;;;;-148.56;100.00;61375.16;5005352;28;20080;-30
2022/03/17 05:44:19;;;;;;;2.80;1.05;;;;;;;-148.56;100.00;61375.16;5005199;28;20033;-29
2022/03/17 05:46:45;;;;;;;1.52;1.05;;;;;;;-148.56;100.00;61375.16;5002497;28;20046;-32
2022/03/17 05:49:10;;;;;;;1.33;1.00;;;;;;;-148.56;100.00;61375.16;5000284;28;20076;-32
2022/03/17 05:51:35;;;;;;;1.27;1.05;;;;;;;-148.56;100.00;61375.16;5004629;28;20432;-30
2022/03/17 05:54:01;;;;;;;1.50;1.00;;;;;;;-148.56;100.00;61375.16;4983824;28;20036;-31
2022/03/17 05:56:26;;;;;;;1.65;1.08;;;;;;;-148.56;100.00;61375.16;5005212;28;20037;-31
2022/03/17 05:58:52;;;;;;;1.63;1.17;;;;;;;-148.56;100.00;61375.16;4999606;28;20033;-28
2022/03/17 06:01:17;;;;;;;1.73;1.10;;;;;;;-148.56;100.00;61375.16;5002719;28;20036;-30
2022/03/17 06:03:42;;;;;;;1.70;1.17;;;;;;;-148.56;100.00;61375.16;5002952;28;20022;-30
2022/03/17 06:06:08;;;;;;;1.80;1.20;;;;;;;-148.56;100.00;61375.16;5000075;28;20033;-33
2022/03/17 06:08:33;;;;;;;1.48;0.80;;;;;;;-148.56;100.00;61375.16;4999890;28;20041;-31
2022/03/17 06:10:59;;;;;;;2.63;1.27;;;;;;;-148.56;100.00;61375.16;5003811;28;20021;-27
2022/03/17 06:13:25;;;;;;;3.30;1.25;;;;;;;-148.56;nan;61375.16;4996319;28;20061;-31
2022/03/17 06:15:50;;;;;;;2.28;1.48;;;;;;;-148.56;100.00;61375.16;4996680;28;20021;-25
2022/03/17 06:18:16;;;;;;;2.90;1.50;;;;;;;-148.56;100.00;61375.16;5004077;28;21340;-31
2022/03/17 06:20:41;;;;;;;2.50;1.48;;;;;;;-148.56;100.00;61375.16;5004625;28;20022;-33
2022/03/17 06:23:07;;;;;;;1.48;1.10;;;;;;;-148.56;0.00;61375.16;4986382;28;20030;-31
2022/03/17 06:25:33;;;;;;;1.20;1.10;;;;;;;-148.56;100.00;61375.16;5001329;28;20052;-30
2022/03/17 06:27:59;;;;;;;3.22;1.60;;;;;;;-148.56;100.00;61375.16;4985222;28;20702;-26
2022/03/17 06:30:27;;;;;;;2.42;1.08;;;;;;;-148.56;100.00;61375.16;5001770;28;20040;-30
2022/03/17 06:32:52;;;;;;;1.52;1.20;;;;;;;-148.56;100.00;61375.16;5004423;28;20040;-30
2022/03/17 06:35:19;;;;;;;1.77;1.08;;;;;;;-148.56;100.00;61375.16;5006235;28;20760;-29
2022/03/17 06:37:45;;;;;;;1.20;1.05;;;;;;;-148.56;100.00;61375.16;5007707;28;20531;-29
2022/03/17 06:40:11;;;;;;;1.58;1.13;;;;;;;-148.56;100.00;61375.16;5005362;28;20056;-32
2022/03/17 06:42:37;;;;;;;1.77;1.23;;;;;;;-148.56;100.00;61375.16;5005950;28;20025;-31
2022/03/17 06:45:02;;;;;;;1.95;1.30;;;;;;;-148.56;100.00;61375.16;5005202;28;20088;-28
2022/03/17 06:47:28;;;;;;;1.30;1.00;;;;;;;-148.56;100.00;61375.16;5005422;28;20992;-31
2022/03/17 06:49:53;;;;;;;2.70;1.30;;;;;;;-148.56;100.00;61375.16;5005878;28;20034;-32
2022/03/17 06:52:19;;;;;;;2.38;1.65;;;;;;;-148.56;100.00;61375.16;5003452;28;20025;-32
2022/03/17 06:54:44;;;;;;;2.30;1.70;;;;;;;-148.56;100.00;61375.16;5006903;28;20630;-30
2022/03/17 06:57:10;;;;;;;2.20;1.85;;;;;;;-148.56;100.00;61375.16;5006075;28;20112;-33
2022/03/17 06:59:35;;;;;;;5.93;2.33;;;;;;;-148.56;100.00;61375.16;5006298;28;20029;-30
2022/03/17 07:02:01;;;;;;;5.28;2.05;;;;;;;-148.56;100.00;61375.16;5005272;28;20029;-32
2022/03/17 07:04:26;;;;;;;4.88;2.00;;;;;;;-148.56;100.00;61375.16;5000659;28;20032;-30
2022/03/17 07:06:52;;;;;;;6.25;1.80;;;;;;;-148.56;100.00;61375.16;5007951;28;20045;-30
2022/03/17 07:09:17;;;;;;;7.15;1.90;;;;;;;-148.56;100.00;61375.16;5004734;28;20026;-32
2022/03/17 07:11:44;;;;;;;2.85;1.67;;;;;;;-148.56;100.00;61375.16;5005222;28;20682;-28
2022/03/17 07:14:10;;;;;;;2.78;1.60;;;;;;;-148.56;100.00;61375.16;4987369;28;20096;-31
2022/03/17 07:16:35;;;;;;;6.20;2.20;;;;;;;-148.56;100.00;61375.16;5005390;28;20995;-31
2022/03/17 07:19:00;;;;;;;4.18;2.45;;;;;;;-148.56;100.00;61375.16;4976846;28;20432;-30
2022/03/17 07:21:26;;;;;;;5.75;2.20;;;;;;;-148.56;100.00;61375.16;4982170;28;20026;-31
2022/03/17 07:23:51;;;;;;;7.40;2.60;;;;;;;-148.56;100.00;61375.16;4980080;28;20037;-31
2022/03/17 07:26:18;;;;;;;5.32;2.42;;;;;;;-148.56;100.00;61375.16;4966174;28;20096;-30
2022/03/17 07:28:44;;;;;;;7.95;2.58;;;;;;;-148.56;100.00;61375.16;4965136;28;20033;-27
2022/03/17 07:31:09;;;;;;;6.43;2.35;;;;;;;-148.56;100.00;61375.16;4968894;28;20697;-31
2022/03/17 07:33:34;;;;;;;6.00;2.75;;;;;;;-148.56;100.00;61375.16;4973044;28;20076;-30
2022/03/17 07:36:00;;;;;;;5.65;2.42;;;;;;;-148.56;100.00;61375.16;4968528;28;20665;-32
2022/03/17 07:38:25;;;;;;;5.85;2.75;;;;;;;-148.56;100.00;61375.16;4967140;28;20203;-29
2022/03/17 07:40:51;;;;;;;5.63;2.50;;;;;;;-148.56;100.00;61375.16;4966530;28;21251;-26
2022/03/17 07:43:16;;;;;;;7.20;2.45;;;;;;;-148.56;100.00;61375.16;4966445;28;20038;-31
2022/03/17 07:45:42;;;;;;;5.45;2.80;;;;;;;-148.56;100.00;61375.16;4980975;28;20026;-28
2022/03/17 07:48:08;;;;;;;4.78;2.45;;;;;;;-148.56;100.00;61375.16;4983089;28;20121;-31
2022/03/17 07:50:33;;;;;;;5.80;3.03;;;;;;;-148.56;100.00;61375.16;4986317;28;20022;-29
2022/03/17 07:52:59;;;;;;;7.53;2.50;;;;;;;-148.56;100.00;61375.16;4983466;28;20029;-32
2022/03/17 07:55:25;;;;;;;6.20;2.60;;;;;;;-148.56;100.00;61375.16;4984638;28;20226;-31
2022/03/17 07:57:50;;;;;;;4.72;2.50;;;;;;;-148.56;100.00;61375.16;4983308;28;20479;-28
2022/03/17 08:00:16;;;;;;;6.75;2.67;;;;;;;-148.56;100.00;61375.16;4983130;28;20095;-30
2022/03/17 08:02:41;;;;;;;6.00;2.30;;;;;;;-148.56;100.00;61375.16;4984600;28;20026;-30
2022/03/17 08:05:08;;;;;;;5.88;2.40;;;;;;;-148.56;100.00;61375.16;4984121;28;20037;-30
2022/03/17 08:07:34;;;;;;;6.78;2.60;;;;;;;-148.56;100.00;61375.16;4969078;28;20076;-32
2022/03/17 08:09:59;;;;;;;5.13;2.55;;;;;;;-148.56;100.00;61375.16;4984478;28;20589;-31
2022/03/17 08:12:26;;;;;;;6.25;2.50;;;;;;;-148.56;100.00;61375.16;4983786;28;20077;-33
2022/03/17 08:14:53;;;;;;;4.30;2.33;;;;;;;-148.56;100.00;61375.16;4981079;28;20143;-31
2022/03/17 08:17:18;;;;;;;6.32;3.00;;;;;;;-148.56;100.00;61375.16;4984298;28;20025;-32
2022/03/17 08:19:43;;;;;;;5.05;2.50;;;;;;;-148.56;100.00;61375.16;4984180;28;20606;-31
2022/03/17 08:22:09;;;;;;;7.68;3.10;;;;;;;-148.56;100.00;61375.16;4981892;28;20026;-32
2022/03/17 08:24:34;;;;;;;8.20;2.70;;;;;;;-148.56;100.00;61375.16;4984117;28;20029;-33
2022/03/17 08:27:02;;;;;;;7.80;2.63;;;;;;;-148.56;100.00;61375.16;4985856;28;20088;-31
2022/03/17 08:29:28;;;;;;;4.40;2.72;;;;;;;-148.56;100.00;61375.16;4982355;28;20674;-30
2022/03/17 08:31:53;;;;;;;3.38;2.53;;;;;;;-148.56;100.00;61375.16;4984766;28;20432;-31
2022/03/17 08:34:19;;;;;;;5.68;2.60;;;;;;;-148.56;100.00;61375.16;4983669;28;20029;-30
2022/03/17 08:36:45;;;;;;;8.35;3.00;;;;;;;-148.56;100.00;61375.16;4985423;28;20033;-31
2022/03/17 08:39:10;;;;;;;5.25;2.40;;;;;;;-148.56;100.00;61375.16;4983985;28;20038;-29
2022/03/17 08:41:36;;;;;;;3.78;2.28;;;;;;;-148.56;100.00;61375.16;4981329;28;20036;-29
2022/03/17 08:44:01;;;;;;;3.97;2.47;;;;;;;-148.56;100.00;61375.16;4956401;28;22143;-30
2022/03/17 08:49:19;;;;;;;5.15;2.42;;;;;;;-148.56;100.00;61375.16;4950701;28;20079;-29
2022/03/17 08:51:53;;;;;;;5.68;2.58;;;;;;;-148.56;100.00;61375.16;4952924;28;20181;-28
2022/03/17 08:54:24;;;;;;;18.00;14.50;;;;;;;-148.56;100.00;61375.16;4953854;28;20037;-31
2022/03/17 08:56:59;;;;;;;20.92;16.60;;;;;;;-148.56;100.00;61375.16;4952496;28;21208;-32
2022/03/17 08:59:30;;;;;;;19.13;16.98;;;;;;;-148.56;100.00;61375.16;4953627;28;20033;-31
2022/03/17 09:01:56;;;;;;;24.25;18.58;;;;;;;-148.56;100.00;61375.16;4949332;28;20037;-27
2022/03/17 09:04:21;;;;;;;22.10;17.17;;;;;;;-148.56;100.00;61375.16;4971540;28;20030;-28
2022/03/17 09:06:47;;;;;;;35.22;16.33;;;;;;;-148.56;100.00;61375.16;4954641;28;20045;-31
2022/03/17 09:09:12;;;;;;;19.40;13.52;;;;;;;-148.56;100.00;61375.16;4954241;28;20046;-29
2022/03/17 09:11:38;;;;;;;14.23;11.48;;;;;;;-148.56;100.00;61375.16;4953967;28;20108;-27
2022/03/17 09:14:04;;;;;;;14.75;10.82;;;;;;;-148.56;100.00;61375.16;4948484;28;20022;-29
2022/03/17 09:16:30;;;;;;;12.63;8.45;;;;;;;-148.56;100.00;61375.16;4949303;28;20473;-28
2022/03/17 09:18:56;;;;;;;11.98;7.88;;;;;;;-148.56;100.00;61375.16;4946111;28;20068;-28
2022/03/17 09:21:22;;;;;;;12.48;7.25;;;;;;;-148.56;100.00;61375.16;4947790;28;20046;-30
2022/03/17 09:23:47;;;;;;;9.32;6.40;;;;;;;-148.56;100.00;61375.16;4940985;28;20050;-31
2022/03/17 09:26:14;;;;;;;8.73;5.78;;;;;;;-148.56;100.00;61375.16;4945940;28;20150;-27
2022/03/17 09:28:39;;;;;;;10.63;5.65;;;;;;;-148.56;100.00;61375.16;4946700;28;20486;-29
2022/03/17 09:31:05;;;;;;;8.75;5.03;;;;;;;-148.56;100.00;61375.16;4951605;28;20026;-30
2022/03/17 09:33:30;;;;;;;6.93;5.05;;;;;;;-148.56;100.00;61375.16;4963854;28;20030;-27
2022/03/17 09:35:56;;;;;;;10.07;5.18;;;;;;;-148.56;100.00;61375.16;4988024;28;20026;-29
2022/03/17 09:38:22;;;;;;;8.57;4.85;;;;;;;-148.56;100.00;61375.16;4979815;28;20037;-29
2022/03/17 09:40:47;;;;;;;7.13;4.50;;;;;;;-148.56;100.00;61375.16;4982225;28;20030;-28
2022/03/17 09:43:18;;;;;;;6.53;4.10;;;;;;;-148.56;100.00;61375.16;4960794;28;20034;-32
2022/03/17 09:45:45;;;;;;;6.53;4.00;;;;;;;-148.56;100.00;61375.16;4980735;28;20026;-31
2022/03/17 09:48:11;;;;;;;4.80;3.70;;;;;;;-148.56;100.00;61375.16;4979239;28;20041;-30
2022/03/17 09:50:37;;;;;;;10.23;3.88;;;;;;;-148.56;100.00;61375.16;4984619;28;20435;-29
2022/03/17 09:53:02;;;;;;;7.57;3.72;;;;;;;-148.56;100.00;61375.16;4981917;28;20038;-29
2022/03/17 09:55:28;;;;;;;8.77;3.83;;;;;;;-148.56;100.00;61375.16;4982878;28;20029;-32
2022/03/17 09:57:53;;;;;;;13.48;4.10;;;;;;;-148.56;100.00;61375.16;4980914;28;20456;-31
2022/03/17 10:00:19;;;;;;;11.45;4.30;;;;;;;-148.56;100.00;61375.16;4984823;28;20080;-31
2022/03/17 10:02:44;;;;;;;9.30;4.07;;;;;;;-148.56;100.00;61375.16;4981580;28;20104;-29
2022/03/17 10:05:11;;;;;;;22.33;4.18;;;;;;;-148.56;100.00;61375.16;4982540;28;20026;-30
2022/03/17 10:07:37;;;;;;;7.07;3.95;;;;;;;-148.56;100.00;61375.16;4985804;28;20567;-32
2022/03/17 10:10:02;;;;;;;9.23;4.25;;;;;;;-148.56;100.00;61375.16;4986095;28;20048;-34
2022/03/17 10:12:30;;;;;;;9.48;3.83;;;;;;;-148.56;100.00;61375.16;4987445;28;20563;-27
2022/03/17 10:14:56;;;;;;;7.32;3.90;;;;;;;-148.56;100.00;61375.16;4987066;28;20026;-30
2022/03/17 10:17:34;;;;;;;7.10;3.83;;;;;;;-148.56;100.00;61375.16;4969220;28;20516;-31
2022/03/17 10:20:15;;;;;;;10.80;4.30;;;;;;;-148.56;100.00;61375.16;4987190;28;20049;-30
2022/03/17 10:22:46;;;;;;;12.30;4.00;;;;;;;-148.56;100.00;61375.16;4990272;28;20026;-29
2022/03/17 10:25:13;;;;;;;7.47;3.70;;;;;;;-148.56;100.00;61375.16;4969613;28;20049;-31
2022/03/17 10:27:42;;;;;;;9.38;3.60;;;;;;;-148.56;100.00;61375.16;4986652;28;20045;-28
2022/03/17 10:30:08;;;;;;;5.80;3.53;;;;;;;-148.56;100.00;61375.16;4987196;28;20030;-29
2022/03/17 10:32:33;;;;;;;8.32;3.58;;;;;;;-148.56;100.00;61375.16;4986342;28;20072;-30
2022/03/17 10:34:59;;;;;;;7.57;3.65;;;;;;;-148.56;100.00;61375.16;4984833;28;20026;-34
2022/03/17 10:37:25;;;;;;;7.88;3.75;;;;;;;-148.56;100.00;61375.16;4969616;28;20586;-30
2022/03/17 10:39:53;;;;;;;6.65;3.50;;;;;;;-148.56;100.00;61375.16;4987240;28;20034;-34
2022/03/17 10:42:19;;;;;;;5.60;3.17;;;;;;;-148.56;100.00;61375.16;4984016;28;20034;-29
2022/03/17 10:44:46;;;;;;;6.20;3.20;;;;;;;-148.56;100.00;61375.16;4983063;28;20805;-31
2022/03/17 10:47:11;;;;;;;12.77;3.42;;;;;;;-148.56;100.00;61375.16;4983786;28;20703;-34
2022/03/17 10:49:37;;;;;;;5.82;3.33;;;;;;;-148.56;100.00;61375.16;4986027;28;20026;-30
2022/03/17 10:52:03;;;;;;;5.65;3.05;;;;;;;-148.56;100.00;61375.16;4986761;28;20064;-30
2022/03/17 10:54:29;;;;;;;5.50;3.45;;;;;;;-148.56;100.00;61375.16;4983706;28;20026;-31
2022/03/17 10:57:02;;;;;;;9.88;3.28;;;;;;;-148.56;100.00;61375.16;4983870;28;20038;-32
2022/03/17 10:59:44;;;;;;;5.80;3.17;;;;;;;-148.56;100.00;61375.16;4987652;28;20033;-29
2022/03/17 11:02:11;;;;;;;8.10;3.42;;;;;;;-148.56;100.00;61375.16;4986709;28;20042;-30
2022/03/17 11:04:38;;;;;;;7.07;3.30;;;;;;;-148.56;100.00;61375.16;4987465;28;20080;-32
2022/03/17 11:07:10;;;;;;;4.78;3.30;;;;;;;-148.56;100.00;61375.16;4989261;28;20060;-32
2022/03/17 11:09:36;;;;;;;5.68;2.97;;;;;;;-148.56;100.00;61375.16;4986699;28;20044;-31
2022/03/17 11:12:02;;;;;;;5.40;3.20;;;;;;;-148.56;100.00;61375.16;4966180;28;20113;-31
2022/03/17 11:14:28;;;;;;;6.63;2.97;;;;;;;-148.56;100.00;61375.16;4984366;28;20058;-29
2022/03/17 11:16:54;;;;;;;4.35;3.20;;;;;;;-148.56;100.00;61375.16;4967553;28;20037;-32
2022/03/17 11:19:20;;;;;;;4.28;3.17;;;;;;;-148.56;100.00;61375.16;4952706;28;20233;-31
2022/03/17 11:21:48;;;;;;;5.70;3.20;;;;;;;-148.56;100.00;61375.16;4952717;28;20117;-33
2022/03/17 11:24:20;;;;;;;4.15;2.80;;;;;;;-148.56;100.00;61375.16;4977483;28;20022;-30
2022/03/17 11:26:46;;;;;;;9.20;2.90;;;;;;;-148.56;100.00;61375.16;4985306;28;20114;-32